sensor_id;sensor_type;location;lat;lon;timestamp;pressure;altitude;pressure_sealevel;temperature;humidity
49367;BME280;35245;52.026;8.540;2023-06-19T00:01:26;51288.22;;;-145.42;70.13
49367;BME280;35245;52.026;8.540;2023-06-19T00:03:53;51286.25;;;-145.42;68.32
49367;BME280;35245;52.026;8.540;2023-06-19T00:06:20;51296.16;;;-145.42;67.73
49367;BME280;35245;52.026;8.540;2023-06-19T00:08:47;51246.59;;;-145.42;67.85
49367;BME280;35245;52.026;8.540;2023-06-19T00:11:15;51254.53;;;-145.42;67.88
49367;BME280;35245;52.026;8.540;2023-06-19T00:13:42;51302.09;;;-145.42;67.81
49367;BME280;35245;52.026;8.540;2023-06-19T00:16:09;51278.31;;;-145.42;68.25
49367;BME280;35245;52.026;8.540;2023-06-19T00:18:38;51258.50;;;-145.42;68.90
49367;BME280;35245;52.026;8.540;2023-06-19T00:21:06;51284.25;;;-145.42;69.12
49367;BME280;35245;52.026;8.540;2023-06-19T00:23:34;51246.59;;;-145.42;69.32
49367;BME280;35245;52.026;8.540;2023-06-19T00:26:01;51240.66;;;-145.42;69.49
49367;BME280;35245;52.026;8.540;2023-06-19T00:28:29;51274.34;;;-145.42;69.39
49367;BME280;35245;52.026;8.540;2023-06-19T00:30:57;51276.31;;;-145.42;69.37
49367;BME280;35245;52.026;8.540;2023-06-19T00:33:24;51252.53;;;-145.42;69.22
49367;BME280;35245;52.026;8.540;2023-06-19T00:35:52;51260.47;;;-145.42;69.48
49367;BME280;35245;52.026;8.540;2023-06-19T00:38:21;51272.38;;;-145.42;70.04
49367;BME280;35245;52.026;8.540;2023-06-19T00:40:49;51262.44;;;-145.42;70.06
49367;BME280;35245;52.026;8.540;2023-06-19T00:43:16;51280.28;;;-145.42;70.34
49367;BME280;35245;52.026;8.540;2023-06-19T00:45:44;51256.50;;;-145.42;70.66
49367;BME280;35245;52.026;8.540;2023-06-19T00:48:11;51220.81;;;-145.42;70.86
49367;BME280;35245;52.026;8.540;2023-06-19T00:50:38;51264.44;;;-145.42;71.22
49367;BME280;35245;52.026;8.540;2023-06-19T00:53:07;51258.50;;;-145.42;71.13
49367;BME280;35245;52.026;8.540;2023-06-19T00:55:34;51262.44;;;-145.42;71.28
49367;BME280;35245;52.026;8.540;2023-06-19T00:58:02;51260.47;;;-145.42;71.44
49367;BME280;35245;52.026;8.540;2023-06-19T01:00:29;51246.59;;;-145.42;71.42
49367;BME280;35245;52.026;8.540;2023-06-19T01:02:56;51264.44;;;-145.42;71.83
49367;BME280;35245;52.026;8.540;2023-06-19T01:05:24;51266.41;;;-145.42;71.97
49367;BME280;35245;52.026;8.540;2023-06-19T01:07:59;51278.31;;;-145.42;71.78
49367;BME280;35245;52.026;8.540;2023-06-19T01:10:33;51280.28;;;-145.42;72.44
49367;BME280;35245;52.026;8.540;2023-06-19T01:13:08;51264.44;;;-145.42;72.63
49367;BME280;35245;52.026;8.540;2023-06-19T01:15:39;51272.38;;;-145.42;72.93
49367;BME280;35245;52.026;8.540;2023-06-19T01:18:06;51262.44;;;-145.42;73.66
49367;BME280;35245;52.026;8.540;2023-06-19T01:20:34;51252.53;;;-145.42;73.95
49367;BME280;35245;52.026;8.540;2023-06-19T01:23:07;51258.50;;;-145.42;74.24
49367;BME280;35245;52.026;8.540;2023-06-19T01:25:35;51256.50;;;-145.42;73.96
49367;BME280;35245;52.026;8.540;2023-06-19T01:28:02;51264.44;;;-145.42;73.73
49367;BME280;35245;52.026;8.540;2023-06-19T01:30:31;51260.47;;;-145.42;73.76
49367;BME280;35245;52.026;8.540;2023-06-19T01:33:03;51258.50;;;-145.42;74.00
49367;BME280;35245;52.026;8.540;2023-06-19T01:35:36;51286.25;;;-145.42;74.48
49367;BME280;35245;52.026;8.540;2023-06-19T01:38:07;51252.53;;;-145.42;77.18
49367;BME280;35245;52.026;8.540;2023-06-19T01:40:35;51250.56;;;-145.42;76.53
49367;BME280;35245;52.026;8.540;2023-06-19T01:43:04;51244.63;;;-145.42;78.06
49367;BME280;35245;52.026;8.540;2023-06-19T01:45:32;51242.63;;;-145.42;77.80
49367;BME280;35245;52.026;8.540;2023-06-19T01:47:59;51236.69;;;-145.42;79.11
49367;BME280;35245;52.026;8.540;2023-06-19T01:50:27;51250.56;;;-145.42;80.37
49367;BME280;35245;52.026;8.540;2023-06-19T01:52:54;51254.53;;;-145.42;80.95
49367;BME280;35245;52.026;8.540;2023-06-19T01:55:22;51262.44;;;-145.42;81.34
49367;BME280;35245;52.026;8.540;2023-06-19T01:57:50;51254.53;;;-145.42;81.98
49367;BME280;35245;52.026;8.540;2023-06-19T02:00:18;51250.56;;;-145.42;82.07
49367;BME280;35245;52.026;8.540;2023-06-19T02:02:45;51244.63;;;-145.42;83.49
49367;BME280;35245;52.026;8.540;2023-06-19T02:05:13;51244.63;;;-145.42;83.56
49367;BME280;35245;52.026;8.540;2023-06-19T02:07:41;51228.75;;;-145.42;83.33
49367;BME280;35245;52.026;8.540;2023-06-19T02:10:09;51246.59;;;-145.42;83.31
49367;BME280;35245;52.026;8.540;2023-06-19T02:12:37;51244.63;;;-145.42;83.76
49367;BME280;35245;52.026;8.540;2023-06-19T02:15:06;51256.50;;;-145.42;88.94
49367;BME280;35245;52.026;8.540;2023-06-19T02:17:33;51278.31;;;-145.42;93.73
49367;BME280;35245;52.026;8.540;2023-06-19T02:20:00;51264.44;;;-145.42;93.54
49367;BME280;35245;52.026;8.540;2023-06-19T02:22:27;51248.56;;;-145.42;91.62
49367;BME280;35245;52.026;8.540;2023-06-19T02:24:54;51260.47;;;-145.42;92.50
49367;BME280;35245;52.026;8.540;2023-06-19T02:27:21;51272.38;;;-145.42;92.38
49367;BME280;35245;52.026;8.540;2023-06-19T02:29:49;51240.66;;;-145.42;92.09
49367;BME280;35245;52.026;8.540;2023-06-19T02:32:17;51242.63;;;-145.42;93.78
49367;BME280;35245;52.026;8.540;2023-06-19T02:34:45;51234.69;;;-145.42;93.54
49367;BME280;35245;52.026;8.540;2023-06-19T02:37:12;51246.59;;;-145.42;92.05
49367;BME280;35245;52.026;8.540;2023-06-19T02:39:40;51268.41;;;-145.42;90.85
49367;BME280;35245;52.026;8.540;2023-06-19T02:42:07;51236.69;;;-145.42;90.50
49367;BME280;35245;52.026;8.540;2023-06-19T02:44:35;51238.66;;;-145.42;89.82
49367;BME280;35245;52.026;8.540;2023-06-19T02:47:04;51244.63;;;-145.42;90.14
49367;BME280;35245;52.026;8.540;2023-06-19T02:49:31;51260.47;;;-145.42;89.51
49367;BME280;35245;52.026;8.540;2023-06-19T02:51:58;51238.66;;;-145.42;89.56
49367;BME280;35245;52.026;8.540;2023-06-19T02:54:25;51256.50;;;-145.42;89.53
49367;BME280;35245;52.026;8.540;2023-06-19T02:56:52;51264.44;;;-145.42;90.26
49367;BME280;35245;52.026;8.540;2023-06-19T02:59:19;51232.72;;;-145.42;92.20
49367;BME280;35245;52.026;8.540;2023-06-19T03:01:46;51254.53;;;-145.42;91.17
49367;BME280;35245;52.026;8.540;2023-06-19T03:04:15;51268.41;;;-145.42;90.79
49367;BME280;35245;52.026;8.540;2023-06-19T03:06:42;51258.50;;;-145.42;89.96
49367;BME280;35245;52.026;8.540;2023-06-19T03:09:09;51246.59;;;-145.42;89.67
49367;BME280;35245;52.026;8.540;2023-06-19T03:11:39;51222.81;;;-145.42;89.62
49367;BME280;35245;52.026;8.540;2023-06-19T03:14:06;51244.63;;;-145.42;89.41
49367;BME280;35245;52.026;8.540;2023-06-19T03:16:35;51262.44;;;-145.42;91.18
49367;BME280;35245;52.026;8.540;2023-06-19T03:19:02;51244.63;;;-145.42;91.16
49367;BME280;35245;52.026;8.540;2023-06-19T03:21:31;51238.66;;;-145.42;91.65
49367;BME280;35245;52.026;8.540;2023-06-19T03:23:58;51240.66;;;-145.42;92.33
49367;BME280;35245;52.026;8.540;2023-06-19T03:26:25;51238.66;;;-145.42;93.16
49367;BME280;35245;52.026;8.540;2023-06-19T03:28:52;51212.91;;;-145.42;94.15
49367;BME280;35245;52.026;8.540;2023-06-19T03:31:19;51240.66;;;-145.42;94.87
49367;BME280;35245;52.026;8.540;2023-06-19T03:33:46;51230.75;;;-145.42;95.14
49367;BME280;35245;52.026;8.540;2023-06-19T03:36:13;51248.56;;;-145.42;95.58
49367;BME280;35245;52.026;8.540;2023-06-19T03:38:42;51224.78;;;-145.42;96.59
49367;BME280;35245;52.026;8.540;2023-06-19T03:41:09;51228.75;;;-145.42;97.12
49367;BME280;35245;52.026;8.540;2023-06-19T03:43:36;51216.84;;;-145.42;96.06
49367;BME280;35245;52.026;8.540;2023-06-19T03:46:03;51236.69;;;-145.42;96.89
49367;BME280;35245;52.026;8.540;2023-06-19T03:48:30;51228.75;;;-145.42;96.51
49367;BME280;35245;52.026;8.540;2023-06-19T03:50:58;51199.03;;;-145.42;91.39
49367;BME280;35245;52.026;8.540;2023-06-19T03:53:26;51224.78;;;-145.42;89.69
49367;BME280;35245;52.026;8.540;2023-06-19T03:55:55;51240.66;;;-145.42;89.03
49367;BME280;35245;52.026;8.540;2023-06-19T03:58:22;51238.66;;;-145.42;88.18
49367;BME280;35245;52.026;8.540;2023-06-19T04:00:49;51240.66;;;-145.42;86.08
49367;BME280;35245;52.026;8.540;2023-06-19T04:03:16;51260.47;;;-145.42;85.10
49367;BME280;35245;52.026;8.540;2023-06-19T04:05:43;51272.38;;;-145.42;83.29
49367;BME280;35245;52.026;8.540;2023-06-19T04:08:10;51262.44;;;-145.42;82.87
49367;BME280;35245;52.026;8.540;2023-06-19T04:10:37;51264.44;;;-145.42;82.48
49367;BME280;35245;52.026;8.540;2023-06-19T04:13:06;51246.59;;;-145.42;82.34
49367;BME280;35245;52.026;8.540;2023-06-19T04:15:33;51260.47;;;-145.42;82.41
49367;BME280;35245;52.026;8.540;2023-06-19T04:18:01;51240.66;;;-145.42;82.47
49367;BME280;35245;52.026;8.540;2023-06-19T04:20:29;51230.75;;;-145.42;82.86
49367;BME280;35245;52.026;8.540;2023-06-19T04:22:56;51272.38;;;-145.42;83.73
49367;BME280;35245;52.026;8.540;2023-06-19T04:25:23;51274.34;;;-145.42;83.71
49367;BME280;35245;52.026;8.540;2023-06-19T04:27:50;51264.44;;;-145.42;85.05
49367;BME280;35245;52.026;8.540;2023-06-19T04:30:18;51252.53;;;-145.42;87.17
49367;BME280;35245;52.026;8.540;2023-06-19T04:32:46;51240.66;;;-145.42;88.82
49367;BME280;35245;52.026;8.540;2023-06-19T04:35:13;51236.69;;;-145.42;89.09
49367;BME280;35245;52.026;8.540;2023-06-19T04:37:40;51238.66;;;-145.42;89.59
49367;BME280;35245;52.026;8.540;2023-06-19T04:40:09;51248.56;;;-145.42;88.84
49367;BME280;35245;52.026;8.540;2023-06-19T04:42:36;51250.56;;;-145.42;89.21
49367;BME280;35245;52.026;8.540;2023-06-19T04:45:05;51264.44;;;-145.42;89.98
49367;BME280;35245;52.026;8.540;2023-06-19T04:47:35;51260.47;;;-145.42;90.33
49367;BME280;35245;52.026;8.540;2023-06-19T04:50:02;51264.44;;;-145.42;90.33
49367;BME280;35245;52.026;8.540;2023-06-19T04:52:29;51262.44;;;-145.42;90.64
49367;BME280;35245;52.026;8.540;2023-06-19T04:54:58;51246.59;;;-145.42;91.76
49367;BME280;35245;52.026;8.540;2023-06-19T04:57:25;51218.84;;;-145.42;95.74
49367;BME280;35245;52.026;8.540;2023-06-19T04:59:52;51220.81;;;-145.42;96.26
49367;BME280;35245;52.026;8.540;2023-06-19T05:02:20;51244.63;;;-145.42;97.51
49367;BME280;35245;52.026;8.540;2023-06-19T05:04:48;51208.94;;;-145.42;99.24
49367;BME280;35245;52.026;8.540;2023-06-19T05:07:15;51208.94;;;-145.42;100.00
49367;BME280;35245;52.026;8.540;2023-06-19T05:09:43;51214.88;;;-145.42;100.00
49367;BME280;35245;52.026;8.540;2023-06-19T05:12:11;51202.97;;;-145.42;100.00
49367;BME280;35245;52.026;8.540;2023-06-19T05:14:38;51208.94;;;-145.42;100.00
49367;BME280;35245;52.026;8.540;2023-06-19T05:17:06;51197.03;;;-145.42;100.00
49367;BME280;35245;52.026;8.540;2023-06-19T05:19:35;51199.03;;;-145.42;100.00
49367;BME280;35245;52.026;8.540;2023-06-19T05:22:04;51195.06;;;-145.42;100.00
49367;BME280;35245;52.026;8.540;2023-06-19T05:24:32;51202.97;;;-145.42;100.00
49367;BME280;35245;52.026;8.540;2023-06-19T05:26:59;51191.09;;;-145.42;100.00
49367;BME280;35245;52.026;8.540;2023-06-19T05:29:26;51218.84;;;-145.42;100.00
49367;BME280;35245;52.026;8.540;2023-06-19T05:31:53;51199.03;;;-145.42;100.00
49367;BME280;35245;52.026;8.540;2023-06-19T05:34:20;51216.84;;;-145.42;100.00
49367;BME280;35245;52.026;8.540;2023-06-19T05:36:48;51210.91;;;-145.42;100.00
49367;BME280;35245;52.026;8.540;2023-06-19T05:39:17;51177.22;;;-145.42;100.00
49367;BME280;35245;52.026;8.540;2023-06-19T05:41:44;51179.19;;;-145.42;100.00
49367;BME280;35245;52.026;8.540;2023-06-19T05:44:12;51232.72;;;-145.42;100.00
49367;BME280;35245;52.026;8.540;2023-06-19T05:46:41;51220.81;;;-145.42;100.00
49367;BME280;35245;52.026;8.540;2023-06-19T05:49:08;51199.03;;;-145.42;100.00
49367;BME280;35245;52.026;8.540;2023-06-19T05:51:36;51248.56;;;-145.42;100.00
49367;BME280;35245;52.026;8.540;2023-06-19T05:54:03;51232.72;;;-145.42;100.00
49367;BME280;35245;52.026;8.540;2023-06-19T05:56:32;51214.88;;;-145.42;100.00
49367;BME280;35245;52.026;8.540;2023-06-19T05:58:59;51236.69;;;-145.42;100.00
49367;BME280;35245;52.026;8.540;2023-06-19T06:01:27;51212.91;;;-145.42;100.00
49367;BME280;35245;52.026;8.540;2023-06-19T06:03:54;51236.69;;;-145.42;100.00
49367;BME280;35245;52.026;8.540;2023-06-19T06:06:22;51234.69;;;-145.42;100.00
49367;BME280;35245;52.026;8.540;2023-06-19T06:08:49;51266.41;;;-145.42;100.00
49367;BME280;35245;52.026;8.540;2023-06-19T06:11:17;51236.69;;;-145.42;100.00
49367;BME280;35245;52.026;8.540;2023-06-19T06:13:45;51218.84;;;-145.42;100.00
49367;BME280;35245;52.026;8.540;2023-06-19T06:16:13;51204.97;;;-145.42;100.00
49367;BME280;35245;52.026;8.540;2023-06-19T06:18:40;51232.72;;;-145.42;100.00
49367;BME280;35245;52.026;8.540;2023-06-19T06:21:07;51210.91;;;-145.42;100.00
49367;BME280;35245;52.026;8.540;2023-06-19T06:23:34;51208.94;;;-145.42;100.00
49367;BME280;35245;52.026;8.540;2023-06-19T06:26:01;51208.94;;;-145.42;100.00
49367;BME280;35245;52.026;8.540;2023-06-19T06:28:28;51228.75;;;-145.42;100.00
49367;BME280;35245;52.026;8.540;2023-06-19T06:30:58;51224.78;;;-145.42;100.00
49367;BME280;35245;52.026;8.540;2023-06-19T06:33:25;51206.94;;;-145.42;100.00
49367;BME280;35245;52.026;8.540;2023-06-19T06:35:57;51218.84;;;-145.42;100.00
49367;BME280;35245;52.026;8.540;2023-06-19T06:38:25;51189.09;;;-145.42;100.00
49367;BME280;35245;52.026;8.540;2023-06-19T06:40:52;51201.00;;;-145.42;100.00
49367;BME280;35245;52.026;8.540;2023-06-19T06:43:19;51216.84;;;-145.42;100.00
49367;BME280;35245;52.026;8.540;2023-06-19T06:45:46;51208.94;;;-145.42;100.00
49367;BME280;35245;52.026;8.540;2023-06-19T06:48:14;51232.72;;;-145.42;100.00
49367;BME280;35245;52.026;8.540;2023-06-19T06:50:43;51242.63;;;-145.42;100.00
49367;BME280;35245;52.026;8.540;2023-06-19T06:53:10;51216.84;;;-145.42;100.00
49367;BME280;35245;52.026;8.540;2023-06-19T06:55:37;51238.66;;;-145.42;100.00
49367;BME280;35245;52.026;8.540;2023-06-19T06:58:04;51254.53;;;-145.42;100.00
49367;BME280;35245;52.026;8.540;2023-06-19T07:00:31;51212.91;;;-145.42;100.00
49367;BME280;35245;52.026;8.540;2023-06-19T07:02:58;51230.75;;;-145.42;100.00
49367;BME280;35245;52.026;8.540;2023-06-19T07:05:27;51232.72;;;-145.42;100.00
49367;BME280;35245;52.026;8.540;2023-06-19T07:07:55;51214.88;;;-145.42;100.00
49367;BME280;35245;52.026;8.540;2023-06-19T07:10:22;51240.66;;;-145.42;100.00
49367;BME280;35245;52.026;8.540;2023-06-19T07:12:49;51244.63;;;-145.42;100.00
49367;BME280;35245;52.026;8.540;2023-06-19T07:15:17;51252.53;;;-145.42;100.00
49367;BME280;35245;52.026;8.540;2023-06-19T07:17:45;51244.63;;;-145.42;100.00
49367;BME280;35245;52.026;8.540;2023-06-19T07:20:12;51254.53;;;-145.42;100.00
49367;BME280;35245;52.026;8.540;2023-06-19T07:22:42;51276.31;;;-145.42;100.00
49367;BME280;35245;52.026;8.540;2023-06-19T07:25:10;51226.78;;;-145.42;100.00
49367;BME280;35245;52.026;8.540;2023-06-19T07:27:38;51230.75;;;-145.42;100.00
49367;BME280;35245;52.026;8.540;2023-06-19T07:30:07;51199.03;;;-145.42;100.00
49367;BME280;35245;52.026;8.540;2023-06-19T07:32:34;51202.97;;;-145.42;100.00
49367;BME280;35245;52.026;8.540;2023-06-19T07:35:01;51210.91;;;-145.42;100.00
49367;BME280;35245;52.026;8.540;2023-06-19T07:37:28;51230.75;;;-145.42;100.00
49367;BME280;35245;52.026;8.540;2023-06-19T07:39:56;51228.75;;;-145.42;100.00
49367;BME280;35245;52.026;8.540;2023-06-19T07:42:23;51214.88;;;-145.42;100.00
49367;BME280;35245;52.026;8.540;2023-06-19T07:44:50;51250.56;;;-145.42;100.00
49367;BME280;35245;52.026;8.540;2023-06-19T07:47:18;51230.75;;;-145.42;100.00
49367;BME280;35245;52.026;8.540;2023-06-19T07:49:46;51202.97;;;-145.42;100.00
49367;BME280;35245;52.026;8.540;2023-06-19T07:52:13;51228.75;;;-145.42;100.00
49367;BME280;35245;52.026;8.540;2023-06-19T07:54:52;51220.81;;;-145.42;100.00
49367;BME280;35245;52.026;8.540;2023-06-19T07:57:21;51232.72;;;-145.42;100.00
49367;BME280;35245;52.026;8.540;2023-06-19T07:59:49;51220.81;;;-145.42;100.00
49367;BME280;35245;52.026;8.540;2023-06-19T08:02:17;51220.81;;;-145.42;100.00
49367;BME280;35245;52.026;8.540;2023-06-19T08:04:45;51218.84;;;-145.42;100.00
49367;BME280;35245;52.026;8.540;2023-06-19T08:07:12;51236.69;;;-145.42;100.00
49367;BME280;35245;52.026;8.540;2023-06-19T08:09:39;51236.69;;;-145.42;100.00
49367;BME280;35245;52.026;8.540;2023-06-19T08:12:07;51234.69;;;-145.42;100.00
49367;BME280;35245;52.026;8.540;2023-06-19T08:14:36;51201.00;;;-145.42;100.00
49367;BME280;35245;52.026;8.540;2023-06-19T08:17:04;51228.75;;;-145.42;100.00
49367;BME280;35245;52.026;8.540;2023-06-19T08:19:31;51238.66;;;-145.42;100.00
49367;BME280;35245;52.026;8.540;2023-06-19T08:21:59;51230.75;;;-145.42;100.00
49367;BME280;35245;52.026;8.540;2023-06-19T08:24:26;51272.38;;;-145.42;100.00
49367;BME280;35245;52.026;8.540;2023-06-19T08:26:53;51264.44;;;-145.42;100.00
49367;BME280;35245;52.026;8.540;2023-06-19T08:29:20;51260.47;;;-145.42;100.00
49367;BME280;35245;52.026;8.540;2023-06-19T08:31:49;51234.69;;;-145.42;100.00
49367;BME280;35245;52.026;8.540;2023-06-19T08:34:16;51230.75;;;-145.42;100.00
49367;BME280;35245;52.026;8.540;2023-06-19T08:36:43;51244.63;;;-145.42;100.00
49367;BME280;35245;52.026;8.540;2023-06-19T08:39:11;51226.78;;;-145.42;100.00
49367;BME280;35245;52.026;8.540;2023-06-19T08:41:38;51254.53;;;-145.42;100.00
49367;BME280;35245;52.026;8.540;2023-06-19T08:44:07;51284.25;;;-145.42;100.00
49367;BME280;35245;52.026;8.540;2023-06-19T08:46:35;51264.44;;;-145.42;100.00
49367;BME280;35245;52.026;8.540;2023-06-19T08:49:04;51264.44;;;-145.42;100.00
49367;BME280;35245;52.026;8.540;2023-06-19T08:51:33;51282.28;;;-145.42;100.00
49367;BME280;35245;52.026;8.540;2023-06-19T08:54:03;51236.69;;;-145.42;100.00
49367;BME280;35245;52.026;8.540;2023-06-19T08:56:31;51270.38;;;-145.42;100.00
49367;BME280;35245;52.026;8.540;2023-06-19T08:59:08;51258.50;;;-145.42;100.00
49367;BME280;35245;52.026;8.540;2023-06-19T09:01:36;51244.63;;;-145.42;100.00
49367;BME280;35245;52.026;8.540;2023-06-19T09:04:13;51238.66;;;-145.42;100.00
49367;BME280;35245;52.026;8.540;2023-06-19T09:06:51;51266.41;;;-145.42;100.00
49367;BME280;35245;52.026;8.540;2023-06-19T09:09:20;51224.78;;;-145.42;100.00
49367;BME280;35245;52.026;8.540;2023-06-19T09:11:59;51268.41;;;-145.42;100.00
49367;BME280;35245;52.026;8.540;2023-06-19T09:14:33;51262.44;;;-145.42;100.00
49367;BME280;35245;52.026;8.540;2023-06-19T09:17:01;51286.25;;;-145.42;100.00
49367;BME280;35245;52.026;8.540;2023-06-19T09:19:30;51232.72;;;-145.42;100.00
49367;BME280;35245;52.026;8.540;2023-06-19T09:22:01;51244.63;;;-145.42;100.00
49367;BME280;35245;52.026;8.540;2023-06-19T09:24:35;51258.50;;;-145.42;100.00
49367;BME280;35245;52.026;8.540;2023-06-19T09:27:09;51216.84;;;-145.42;100.00
49367;BME280;35245;52.026;8.540;2023-06-19T09:29:40;51260.47;;;-145.42;100.00
49367;BME280;35245;52.026;8.540;2023-06-19T09:32:18;51266.41;;;-145.42;100.00
49367;BME280;35245;52.026;8.540;2023-06-19T09:34:48;51240.66;;;-145.42;100.00
49367;BME280;35245;52.026;8.540;2023-06-19T09:37:21;51268.41;;;-145.42;100.00
49367;BME280;35245;52.026;8.540;2023-06-19T09:39:53;51246.59;;;-145.42;100.00
49367;BME280;35245;52.026;8.540;2023-06-19T09:42:26;51220.81;;;-145.42;100.00
49367;BME280;35245;52.026;8.540;2023-06-19T09:44:59;51234.69;;;-145.42;100.00
49367;BME280;35245;52.026;8.540;2023-06-19T09:47:32;51242.63;;;-145.42;100.00
49367;BME280;35245;52.026;8.540;2023-06-19T09:50:05;51270.38;;;-145.42;100.00
49367;BME280;35245;52.026;8.540;2023-06-19T09:52:33;51248.56;;;-145.42;100.00
49367;BME280;35245;52.026;8.540;2023-06-19T09:55:04;51264.44;;;-145.42;100.00
49367;BME280;35245;52.026;8.540;2023-06-19T09:57:33;51218.84;;;-145.42;100.00
49367;BME280;35245;52.026;8.540;2023-06-19T10:00:05;51244.63;;;-145.42;100.00
49367;BME280;35245;52.026;8.540;2023-06-19T10:02:37;51260.47;;;-145.42;100.00
49367;BME280;35245;52.026;8.540;2023-06-19T10:05:06;51246.59;;;-145.42;100.00
49367;BME280;35245;52.026;8.540;2023-06-19T10:07:40;51286.25;;;-145.42;100.00
49367;BME280;35245;52.026;8.540;2023-06-19T10:10:10;51296.16;;;-145.42;100.00
49367;BME280;35245;52.026;8.540;2023-06-19T10:12:40;51286.25;;;-145.42;100.00
49367;BME280;35245;52.026;8.540;2023-06-19T10:15:15;51296.16;;;-145.42;100.00
49367;BME280;35245;52.026;8.540;2023-06-19T10:17:48;51260.47;;;-145.42;100.00
49367;BME280;35245;52.026;8.540;2023-06-19T10:20:24;51278.31;;;-145.42;100.00
49367;BME280;35245;52.026;8.540;2023-06-19T10:22:58;51290.22;;;-145.42;100.00
49367;BME280;35245;52.026;8.540;2023-06-19T10:25:29;51280.28;;;-145.42;100.00
49367;BME280;35245;52.026;8.540;2023-06-19T10:27:57;51288.22;;;-145.42;100.00
49367;BME280;35245;52.026;8.540;2023-06-19T10:30:24;51224.78;;;-145.42;100.00
49367;BME280;35245;52.026;8.540;2023-06-19T10:32:51;51284.25;;;-145.42;100.00
49367;BME280;35245;52.026;8.540;2023-06-19T10:35:21;51264.44;;;-145.42;100.00
49367;BME280;35245;52.026;8.540;2023-06-19T10:37:50;51250.56;;;-145.42;100.00
49367;BME280;35245;52.026;8.540;2023-06-19T10:40:18;51335.81;;;-145.42;100.00
49367;BME280;35245;52.026;8.540;2023-06-19T10:42:45;51276.31;;;-145.42;100.00
49367;BME280;35245;52.026;8.540;2023-06-19T10:45:14;51234.69;;;-145.42;100.00
49367;BME280;35245;52.026;8.540;2023-06-19T10:47:43;51248.56;;;-145.42;100.00
49367;BME280;35245;52.026;8.540;2023-06-19T10:50:12;51246.59;;;-145.42;100.00
49367;BME280;35245;52.026;8.540;2023-06-19T10:52:43;51256.50;;;-145.42;100.00
49367;BME280;35245;52.026;8.540;2023-06-19T10:55:11;51276.31;;;-145.42;100.00
49367;BME280;35245;52.026;8.540;2023-06-19T10:57:40;51319.94;;;-145.42;100.00
49367;BME280;35245;52.026;8.540;2023-06-19T11:00:09;51268.41;;;-145.42;100.00
49367;BME280;35245;52.026;8.540;2023-06-19T11:02:39;51282.28;;;-145.42;100.00
49367;BME280;35245;52.026;8.540;2023-06-19T11:05:09;51304.09;;;-145.42;100.00
49367;BME280;35245;52.026;8.540;2023-06-19T11:07:37;51292.19;;;-145.42;100.00
49367;BME280;35245;52.026;8.540;2023-06-19T11:10:07;51306.06;;;-145.42;100.00
49367;BME280;35245;52.026;8.540;2023-06-19T11:12:45;51331.84;;;-145.42;100.00
49367;BME280;35245;52.026;8.540;2023-06-19T11:15:12;51304.09;;;-145.42;100.00
49367;BME280;35245;52.026;8.540;2023-06-19T11:17:40;51319.94;;;-145.42;100.00
49367;BME280;35245;52.026;8.540;2023-06-19T11:20:11;51304.09;;;-145.42;100.00
49367;BME280;35245;52.026;8.540;2023-06-19T11:22:40;51300.13;;;-145.42;100.00
49367;BME280;35245;52.026;8.540;2023-06-19T11:25:10;51296.16;;;-145.42;100.00
49367;BME280;35245;52.026;8.540;2023-06-19T11:27:39;51325.88;;;-145.42;100.00
49367;BME280;35245;52.026;8.540;2023-06-19T11:30:07;51268.41;;;-145.42;100.00
49367;BME280;35245;52.026;8.540;2023-06-19T11:32:37;51308.03;;;-145.42;100.00
49367;BME280;35245;52.026;8.540;2023-06-19T11:35:10;51296.16;;;-145.42;100.00
49367;BME280;35245;52.026;8.540;2023-06-19T11:37:40;51329.84;;;-145.42;100.00
49367;BME280;35245;52.026;8.540;2023-06-19T11:40:10;51276.31;;;-145.42;100.00
49367;BME280;35245;52.026;8.540;2023-06-19T11:42:52;51315.97;;;-145.42;100.00
49367;BME280;35245;52.026;8.540;2023-06-19T11:45:19;51359.59;;;-145.42;100.00
49367;BME280;35245;52.026;8.540;2023-06-19T11:47:47;51312.00;;;-145.42;100.00
49367;BME280;35245;52.026;8.540;2023-06-19T11:50:15;51327.88;;;-145.42;100.00
49367;BME280;35245;52.026;8.540;2023-06-19T11:52:43;51371.47;;;-145.42;100.00
49367;BME280;35245;52.026;8.540;2023-06-19T11:55:13;51379.41;;;-145.42;96.80
49367;BME280;35245;52.026;8.540;2023-06-19T11:57:41;51413.13;;;-145.42;94.61
49367;BME280;35245;52.026;8.540;2023-06-19T12:00:15;51353.63;;;-145.42;100.00
49367;BME280;35245;52.026;8.540;2023-06-19T12:02:44;51312.00;;;-145.42;100.00
49367;BME280;35245;52.026;8.540;2023-06-19T12:05:12;51335.81;;;-145.42;100.00
49367;BME280;35245;52.026;8.540;2023-06-19T12:07:40;51369.50;;;-145.42;99.23
49367;BME280;35245;52.026;8.540;2023-06-19T12:10:07;51480.50;;;-145.42;83.48
49367;BME280;35245;52.026;8.540;2023-06-19T12:12:39;51577.66;;;-145.42;74.90
49367;BME280;35245;52.026;8.540;2023-06-19T12:15:07;51502.31;;;-145.42;79.55
49367;BME280;35245;52.026;8.540;2023-06-19T12:17:34;51468.63;;;-145.42;88.64
49367;BME280;35245;52.026;8.540;2023-06-19T12:20:03;51385.34;;;-145.42;98.75
49367;BME280;35245;52.026;8.540;2023-06-19T12:22:32;51389.31;;;-145.42;100.00
49367;BME280;35245;52.026;8.540;2023-06-19T12:24:59;51371.47;;;-145.42;100.00
49367;BME280;35245;52.026;8.540;2023-06-19T12:27:27;51347.69;;;-145.42;92.33
49367;BME280;35245;52.026;8.540;2023-06-19T12:29:55;51454.75;;;-145.42;88.42
49367;BME280;35245;52.026;8.540;2023-06-19T12:32:22;51415.09;;;-145.42;85.33
49367;BME280;35245;52.026;8.540;2023-06-19T12:34:50;51470.59;;;-145.42;81.71
49367;BME280;35245;52.026;8.540;2023-06-19T12:37:20;51411.13;;;-145.42;88.63
49367;BME280;35245;52.026;8.540;2023-06-19T12:39:47;51365.53;;;-145.42;86.88
49367;BME280;35245;52.026;8.540;2023-06-19T12:42:14;51464.66;;;-145.42;78.66